Thunder radar more information blitzortung!


Radar de pluja more information rain snow radar


Visita la nostra xarxa de llocs de meteo:

Template documentation
and downloads

And another site



No particular awareness of the weather is required.    There are no Weather-warnings

Pagina Historial Weather Underground text

Diari Resum Novembre 11, 2017 Unitats:  Imperial    Mètric   Tant
« Previous Dia
SegĂźent Dia »
Diari Setmana Mensual Anual Personalitzada
  Maxima: Minima: Media:
Temperatura: 62.1 °F 43.2 °F 50.5 °F
Punt de rosada: 47.8 °F 31.8 °F 38.7 °F
Humitat: 68 % 57 % 63 %
Wind Speed: 7.8 mph 0 mph 2.1 mph
RĂ fegues de vent: 7.8 mph - -
Vent:- - SSW
Pression baro: 30.3 in 30.2 in -
Precipitacions: 0 in    
Historical Graphs
 
 
Dades de taula per Novembre 11, 2017
Temps Temperatura Punt de rosada Pression baro Vent Wind Speed RĂ fegues de vent Humitat Rainfall Rate (Hourly)
00:01 45 °F 31.8 °F 30.3 in Calm     60 % 0 in
00:06 45 °F 31.8 °F 30.3 in West 1.2 mph 1.2 mph 60 % 0 in
00:11 45 °F 31.8 °F 30.3 in Calm     60 % 0 in
00:16 45 °F 31.8 °F 30.3 in West 1.4 mph   60 % 0 in
00:21 45 °F 31.8 °F 30.3 in West 2.3 mph 2.3 mph 60 % 0 in
00:26 45.1 °F 32.2 °F 30.3 in West 1.2 mph 1.2 mph 60 % 0 in
00:31 45 °F 31.8 °F 30.3 in West 1.2 mph 1.2 mph 60 % 0 in
00:36 45.1 °F 32.2 °F 30.3 in West 1.2 mph   60 % 0 in
00:41 45.1 °F 32.2 °F 30.3 in West 1.6 mph   60 % 0 in
00:46 45.3 °F 32.7 °F 30.3 in NE 2.3 mph 2.3 mph 61 % 0 in
00:51 45.1 °F 32.5 °F 30.3 in NNE 1.4 mph   61 % 0 in
00:56 45 °F 32.4 °F 30.3 in WNW 1.2 mph 1.2 mph 61 % 0 in
01:01 44.8 °F 32.2 °F 30.3 in NNE 2.3 mph 2.3 mph 61 % 0 in
01:06 44.6 °F 32 °F 30.3 in NW 2.3 mph   61 % 0 in
01:11 44.6 °F 32 °F 30.3 in NNW 2.3 mph 2.3 mph 61 % 0 in
01:12 44.6 °F 32 °F 30.3 in WNW 2.3 mph 2.3 mph 61 % 0 in
01:17 44.4 °F 31.8 °F 30.3 in WSW 2.3 mph 2.3 mph 61 % 0 in
01:22 44.4 °F 32.2 °F 30.3 in WNW 2.3 mph 2.3 mph 62 % 0 in
01:27 44.2 °F 32 °F 30.3 in WSW 2.3 mph 2.3 mph 62 % 0 in
01:32 44.2 °F 32 °F 30.3 in WNW 1.2 mph   62 % 0 in
01:37 44.1 °F 31.8 °F 30.3 in WNW 2.3 mph 2.3 mph 62 % 0 in
01:42 44.2 °F 32 °F 30.3 in WNW 2.3 mph 2.3 mph 62 % 0 in
01:47 44.2 °F 32 °F 30.3 in West 2.3 mph 2.3 mph 62 % 0 in
01:52 44.2 °F 32 °F 30.3 in NNE 3.5 mph 3.5 mph 62 % 0 in
01:57 44.4 °F 32.5 °F 30.3 in WNW 2.2 mph 2.2 mph 63 % 0 in
02:02 44.4 °F 32.2 °F 30.3 in WNW 2.3 mph 2.3 mph 62 % 0 in
02:07 44.4 °F 32.2 °F 30.2 in NNW 2.3 mph 2.3 mph 62 % 0 in
02:12 44.6 °F 32.4 °F 30.2 in NW 2.3 mph 2.3 mph 62 % 0 in
02:17 44.6 °F 32.7 °F 30.2 in North 2.3 mph   63 % 0 in
02:22 44.6 °F 32.7 °F 30.2 in WNW 2.3 mph 2.3 mph 63 % 0 in
02:27 44.6 °F 32.4 °F 30.2 in WNW 2.3 mph 2.3 mph 62 % 0 in
02:32 44.4 °F 32.5 °F 30.2 in NW 1.4 mph 2.2 mph 63 % 0 in
02:37 44.4 °F 32.2 °F 30.2 in West 2.2 mph 2.2 mph 62 % 0 in
02:42 44.2 °F 32 °F 30.2 in WSW 2.3 mph 2.3 mph 62 % 0 in
02:47 44.2 °F 32.4 °F 30.2 in West 1.2 mph 1.2 mph 63 % 0 in
02:48 44.4 °F 32.5 °F 30.2 in West 1.2 mph 1.2 mph 63 % 0 in
02:53 44.4 °F 32.5 °F 30.2 in WNW 1.6 mph 1.6 mph 63 % 0 in
02:58 44.6 °F 32.7 °F 30.2 in WNW 1.4 mph 1.4 mph 63 % 0 in
03:03 44.4 °F 32.5 °F 30.2 in NW 0.9 mph   63 % 0 in
03:08 44.4 °F 32.5 °F 30.2 in WNW 1.4 mph   63 % 0 in
03:13 44.4 °F 32.5 °F 30.2 in WNW 2.3 mph 2.3 mph 63 % 0 in
03:18 44.6 °F 32.7 °F 30.2 in SW 2.3 mph 2.3 mph 63 % 0 in
03:23 44.6 °F 32.7 °F 30.2 in NW 2.3 mph 2.3 mph 63 % 0 in
03:28 44.4 °F 33.1 °F 30.2 in South 2.3 mph 2.3 mph 64 % 0 in
03:33 44.2 °F 32.4 °F 30.2 in WSW 2.9 mph 2.9 mph 63 % 0 in
03:34 44.2 °F 32.4 °F 30.2 in WSW 2.6 mph 2.6 mph 63 % 0 in
03:39 44.2 °F 32.4 °F 30.2 in West 2 mph   63 % 0 in
03:44 44.2 °F 32.4 °F 30.2 in WSW 3.5 mph 3.5 mph 63 % 0 in
03:49 44.4 °F 32.5 °F 30.2 in West 2.3 mph 2.3 mph 63 % 0 in
03:54 44.6 °F 33.3 °F 30.2 in NNW 2.3 mph 2.3 mph 64 % 0 in
03:59 44.6 °F 33.3 °F 30.2 in ENE 2.3 mph 2.3 mph 64 % 0 in
04:04 44.1 °F 32.7 °F 30.3 in NNE 3.5 mph 3.5 mph 64 % 0 in
04:09 43.9 °F 32.5 °F 30.3 in ENE 2.4 mph 2.4 mph 64 % 0 in
04:16 43.5 °F 32.2 °F 30.3 in NE 3.5 mph 3.5 mph 64 % 0 in
04:21 43.3 °F 32.4 °F 30.2 in NNE 3.5 mph 3.5 mph 65 % 0 in
04:22 43.2 °F 32.2 °F 30.2 in ENE 3.5 mph 3.5 mph 65 % 0 in
04:23 43.2 °F 32.2 °F 30.2 in NNE 3.5 mph 3.5 mph 65 % 0 in
04:24 43.2 °F 32.2 °F 30.2 in NNE 3.5 mph 3.5 mph 65 % 0 in
04:28 43.2 °F 32.2 °F 30.2 in North 4.6 mph 4.6 mph 65 % 0 in
04:29 43.2 °F 32.2 °F 30.2 in NE 3.5 mph 3.5 mph 65 % 0 in
04:33 43.2 °F 32.2 °F 30.2 in North 3.5 mph 3.5 mph 65 % 0 in
04:38 43.2 °F 32.2 °F 30.2 in NW 2 mph 2 mph 65 % 0 in
04:43 43.2 °F 32.2 °F 30.2 in West 3.5 mph 3.5 mph 65 % 0 in
04:48 43.2 °F 32.2 °F 30.2 in NNW 2.9 mph 2.9 mph 65 % 0 in
04:53 43.3 °F 32.4 °F 30.2 in NNW 2.4 mph 2.6 mph 65 % 0 in
04:58 43.5 °F 32.5 °F 30.2 in North 3.5 mph 3.5 mph 65 % 0 in
05:03 43.5 °F 32.5 °F 30.2 in WNW 2.3 mph 2.3 mph 65 % 0 in
05:08 43.5 °F 32.5 °F 30.2 in NE 3.5 mph 3.5 mph 65 % 0 in
05:13 43.7 °F 33.1 °F 30.2 in ENE 2.3 mph 2.3 mph 66 % 0 in
05:18 43.7 °F 32.7 °F 30.2 in NNE 3.5 mph 3.5 mph 65 % 0 in
05:23 43.9 °F 33.3 °F 30.2 in NNE 2.4 mph 2.4 mph 66 % 0 in
05:28 44.1 °F 33.4 °F 30.2 in North 1.6 mph 1.6 mph 66 % 0 in
05:33 44.1 °F 33.4 °F 30.2 in North 3.5 mph 3.5 mph 66 % 0 in
05:38 44.1 °F 33.1 °F 30.2 in ENE 2.3 mph 2.3 mph 65 % 0 in
05:43 44.2 °F 33.6 °F 30.2 in East 2.3 mph 2.3 mph 66 % 0 in
05:48 44.2 °F 33.6 °F 30.2 in SSE 2.3 mph 2.3 mph 66 % 0 in
05:53 44.2 °F 33.6 °F 30.2 in NE 2.3 mph 2.3 mph 66 % 0 in
05:58 44.4 °F 33.8 °F 30.2 in WNW 2.3 mph 2.3 mph 66 % 0 in
06:03 44.4 °F 33.8 °F 30.2 in NNW 2.3 mph 2.3 mph 66 % 0 in
06:08 44.2 °F 33.6 °F 30.2 in North 2.3 mph 2.3 mph 66 % 0 in
06:13 44.4 °F 33.8 °F 30.2 in WNW 2.3 mph 2.3 mph 66 % 0 in
06:18 44.2 °F 33.6 °F 30.2 in North 2.3 mph 2.3 mph 66 % 0 in
06:23 44.4 °F 34.2 °F 30.2 in East 1.2 mph 1.2 mph 67 % 0 in
06:28 44.4 °F 33.8 °F 30.2 in NNW 2.3 mph 2.3 mph 66 % 0 in
06:33 44.6 °F 34.3 °F 30.2 in WNW 1.2 mph   67 % 0 in
06:38 44.4 °F 33.8 °F 30.2 in West 2.3 mph 2.3 mph 66 % 0 in
06:39 44.4 °F 33.8 °F 30.2 in West 1.2 mph   66 % 0 in
06:44 44.2 °F 33.6 °F 30.2 in West 1.4 mph 1.4 mph 66 % 0 in
06:49 44.2 °F 34 °F 30.2 in Calm     67 % 0 in
06:54 44.2 °F 34 °F 30.2 in Calm     67 % 0 in
06:59 44.2 °F 34 °F 30.2 in NNW 1.2 mph   67 % 0 in
07:04 44.2 °F 34 °F 30.2 in Calm     67 % 0 in
07:09 44.1 °F 33.8 °F 30.2 in NW 1.2 mph 1.2 mph 67 % 0 in
07:14 44.1 °F 33.8 °F 30.2 in NW 2.3 mph   67 % 0 in
07:19 44.1 °F 33.8 °F 30.2 in West 3.5 mph 3.5 mph 67 % 0 in
07:24 44.1 °F 33.8 °F 30.2 in WNW 1.2 mph   67 % 0 in
07:29 43.9 °F 33.6 °F 30.2 in West 1.2 mph 1.4 mph 67 % 0 in
07:34 43.7 °F 33.4 °F 30.2 in SW 1.4 mph 1.4 mph 67 % 0 in
07:39 43.7 °F 33.4 °F 30.2 in ESE 2.3 mph 2.3 mph 67 % 0 in
07:44 43.9 °F 33.6 °F 30.2 in West 2.3 mph 2.3 mph 67 % 0 in
07:49 44.2 °F 34.3 °F 30.2 in NNW 2.3 mph 2.3 mph 68 % 0 in
07:54 44.4 °F 34.2 °F 30.2 in SW 2.3 mph 2.3 mph 67 % 0 in
07:59 44.8 °F 34.9 °F 30.2 in NW 1.2 mph   68 % 0 in
08:04 45.1 °F 34.9 °F 30.2 in SW 2.3 mph 2.3 mph 67 % 0 in
08:09 45.7 °F 35.8 °F 30.2 in SW 2.3 mph   68 % 0 in
08:14 46.4 °F 36 °F 30.2 in NNW 2.3 mph 2.3 mph 67 % 0 in
08:19 47.1 °F 36.7 °F 30.3 in NNW 3.5 mph 3.5 mph 67 % 0 in
08:24 47.5 °F 37 °F 30.3 in NE 2 mph 2 mph 67 % 0 in
08:29 48 °F 37.2 °F 30.3 in NNW 2.3 mph 2.3 mph 66 % 0 in
08:34 48.2 °F 37.4 °F 30.3 in ENE 2.3 mph   66 % 0 in
08:39 48.4 °F 37.6 °F 30.3 in West 1.2 mph 1.2 mph 66 % 0 in
08:45 49.3 °F 38.5 °F 30.3 in ENE 2.3 mph 2.3 mph 66 % 0 in
08:50 49.3 °F 37.9 °F 30.3 in Calm     65 % 0 in
08:55 48.7 °F 37.6 °F 30.3 in NNE 2.3 mph 2.3 mph 65 % 0 in
09:00 48.4 °F 37.2 °F 30.3 in ENE 2.6 mph 2.6 mph 65 % 0 in
09:05 48.4 °F 37.2 °F 30.3 in ENE 3.5 mph 3.5 mph 65 % 0 in
09:10 48.2 °F 37 °F 30.3 in NW 2.3 mph   65 % 0 in
09:15 48.4 °F 37.2 °F 30.3 in ENE 2.3 mph 2.3 mph 65 % 0 in
09:20 48.2 °F 37 °F 30.3 in ENE 3.5 mph 3.5 mph 65 % 0 in
09:25 48.2 °F 37 °F 30.3 in NE 1 mph 3 mph 65 % 0 in
09:30 48.2 °F 37 °F 30.3 in Calm   2 mph 65 % 0 in
09:35 48.2 °F 37.4 °F 30.3 in Calm   2 mph 66 % 0 in
09:45 48.2 °F 37.4 °F 30.3 in WNW 2 mph 2 mph 66 % 0 in
09:50 48.4 °F 37.2 °F 30.3 in NW 1 mph 3 mph 65 % 0 in
09:55 48.6 °F 37.2 °F 30.2 in NW 1 mph 3 mph 65 % 0 in
10:00 48.7 °F 37.6 °F 30.2 in North 1 mph 2 mph 65 % 0 in
10:05 48.9 °F 37.8 °F 30.2 in NNW 2.3 mph 2.3 mph 65 % 0 in
10:10 48.9 °F 38.1 °F 30.2 in WNW 2.3 mph 2.3 mph 66 % 0 in
10:15 49.1 °F 37.8 °F 30.2 in Calm   2 mph 65 % 0 in
10:20 49.1 °F 37.8 °F 30.2 in WNW 1 mph 3 mph 65 % 0 in
10:25 49.1 °F 37.8 °F 30.2 in WSW 2.3 mph 2.3 mph 65 % 0 in
10:30 49.1 °F 37.8 °F 30.2 in Calm   1 mph 65 % 0 in
10:35 49.3 °F 37.9 °F 30.2 in NE 1.2 mph   65 % 0 in
10:40 49.3 °F 37.9 °F 30.2 in NE 1.2 mph   65 % 0 in
10:45 49.5 °F 38.1 °F 30.2 in WNW 2.3 mph 2.3 mph 65 % 0 in
10:50 49.5 °F 38.1 °F 30.2 in Calm   2 mph 65 % 0 in
10:55 49.6 °F 38.3 °F 30.2 in Calm   3 mph 65 % 0 in
11:00 49.6 °F 38.3 °F 30.2 in ENE 2.3 mph 2.3 mph 65 % 0 in
11:05 49.6 °F 37.9 °F 30.3 in WNW 2.3 mph   64 % 0 in
11:10 49.6 °F 37.9 °F 30.3 in ESE 2.4 mph   64 % 0 in
11:15 49.8 °F 38.1 °F 30.3 in NW 1 mph 3 mph 64 % 0 in
11:20 49.8 °F 38.1 °F 30.3 in Calm   3 mph 64 % 0 in
11:25 50 °F 38.3 °F 30.2 in NW 1 mph 3 mph 64 % 0 in
11:30 50 °F 38.3 °F 30.2 in ENE 3.5 mph 3.5 mph 64 % 0 in
11:35 50.2 °F 38.5 °F 30.2 in NNE 2 mph 6 mph 64 % 0 in
11:40 50.4 °F 38.1 °F 30.2 in NNE 1.2 mph   63 % 0 in
11:45 50.4 °F 38.3 °F 30.2 in Calm   1 mph 63 % 0 in
11:50 50.5 °F 38.5 °F 30.2 in WNW 1.2 mph 1.2 mph 63 % 0 in
11:55 50.7 °F 38.7 °F 30.2 in ENE 2.3 mph   63 % 0 in
12:00 50.9 °F 39 °F 30.2 in SW 1.4 mph   64 % 0 in
12:05 50.9 °F 39 °F 30.2 in ENE 3.5 mph 3.5 mph 64 % 0 in
12:10 50.9 °F 38.7 °F 30.2 in NE 1 mph 3 mph 63 % 0 in
12:15 51.1 °F 38.8 °F 30.2 in NE 2 mph 3 mph 63 % 0 in
12:20 51.1 °F 38.8 °F 30.2 in NNW 1.2 mph   63 % 0 in
12:25 51.3 °F 39 °F 30.2 in WSW 2.4 mph 2.4 mph 63 % 0 in
12:30 51.4 °F 39.4 °F 30.2 in NNW 1.2 mph   63 % 0 in
12:35 51.4 °F 39.4 °F 30.2 in NNW 3.5 mph 3.5 mph 63 % 0 in
12:40 51.4 °F 39.4 °F 30.2 in NNW 1 mph 2 mph 63 % 0 in
12:45 51.6 °F 39.7 °F 30.2 in West 1 mph 2 mph 64 % 0 in
12:50 51.8 °F 39.9 °F 30.2 in WSW 1 mph 2 mph 64 % 0 in
12:55 51.8 °F 39.9 °F 30.2 in Calm     64 % 0 in
13:00 52 °F 39.7 °F 30.2 in NE 2.3 mph   63 % 0 in
13:05 52.2 °F 40.3 °F 30.2 in Calm   1 mph 64 % 0 in
13:10 52.2 °F 40.3 °F 30.2 in WNW 1 mph 2 mph 64 % 0 in
13:15 52.3 °F 40.8 °F 30.2 in Calm     65 % 0 in
13:20 52.3 °F 40.8 °F 30.2 in SW 1.4 mph   65 % 0 in
13:25 52.5 °F 40.6 °F 30.2 in SW 1.2 mph   64 % 0 in
13:30 52.5 °F 41.2 °F 30.2 in SW 1 mph 2 mph 65 % 0 in
13:35 52.9 °F 41 °F 30.2 in Calm   3 mph 64 % 0 in
13:40 53.1 °F 41.2 °F 30.2 in Calm   2 mph 64 % 0 in
13:45 53.1 °F 41.2 °F 30.2 in West 2.3 mph 2.3 mph 64 % 0 in
13:50 53.2 °F 41.4 °F 30.2 in NW 1.2 mph   64 % 0 in
13:55 53.4 °F 41.5 °F 30.2 in Calm   1 mph 64 % 0 in
14:00 53.8 °F 42.3 °F 30.2 in SW 2.3 mph 2.3 mph 65 % 0 in
14:05 53.8 °F 42.3 °F 30.2 in SW 1 mph 2 mph 65 % 0 in
14:10 53.8 °F 41.9 °F 30.2 in WSW 2.3 mph 2.3 mph 64 % 0 in
14:15 54 °F 42.1 °F 30.2 in NW 2.3 mph 2.3 mph 64 % 0 in
14:20 54 °F 42.1 °F 30.2 in NW 2 mph 4 mph 64 % 0 in
14:25 54 °F 42.1 °F 30.2 in NW 2.3 mph 2.3 mph 64 % 0 in
14:30 54.1 °F 42.3 °F 30.2 in NNE 1.2 mph   64 % 0 in
14:35 54.1 °F 42.3 °F 30.2 in WSW 2 mph 2 mph 64 % 0 in
14:40 54.3 °F 42.4 °F 30.2 in West 2.3 mph   64 % 0 in
14:45 54.5 °F 42.6 °F 30.2 in NW 1.2 mph   64 % 0 in
14:50 54.7 °F 42.6 °F 30.2 in NW 2.3 mph 2.3 mph 64 % 0 in
14:55 54.7 °F 42.6 °F 30.2 in NE 2.3 mph 2.3 mph 64 % 0 in
15:00 54.7 °F 42.6 °F 30.2 in WSW 6.9 mph 6.9 mph 64 % 0 in
15:05 55.6 °F 43.5 °F 30.2 in NW 2.6 mph 2.6 mph 64 % 0 in
15:08 55.9 °F 43.9 °F 30.2 in WNW 2.3 mph 2.3 mph 64 % 0 in
15:13 56.1 °F 44.1 °F 30.2 in NW 4.6 mph 4.6 mph 64 % 0 in
15:18 56.8 °F 44.4 °F 30.2 in NW 3.5 mph 3.5 mph 63 % 0 in
15:23 57 °F 45 °F 30.2 in WNW 2.3 mph 2.3 mph 64 % 0 in
15:28 57.6 °F 45.1 °F 30.2 in WSW 2.3 mph 2.3 mph 63 % 0 in
15:33 58.3 °F 45.7 °F 30.2 in NW 2.3 mph 2.3 mph 63 % 0 in
15:38 59.2 °F 46.6 °F 30.2 in WSW 5.8 mph 5.8 mph 63 % 0 in
15:43 60.1 °F 46.9 °F 30.2 in WNW 2.3 mph 2.4 mph 62 % 0 in
15:48 60.3 °F 47.1 °F 30.2 in WSW 4 mph 4 mph 62 % 0 in
15:53 60.6 °F 47.5 °F 30.2 in West 6.9 mph 6.9 mph 62 % 0 in
15:58 61.3 °F 47.8 °F 30.2 in WSW 3.5 mph 3.5 mph 61 % 0 in
16:03 61.5 °F 47.5 °F 30.2 in WSW 4 mph 4 mph 60 % 0 in
16:08 61.7 °F 47.7 °F 30.2 in NNW 4.6 mph 4.6 mph 60 % 0 in
16:13 61.9 °F 47.5 °F 30.2 in West 4.6 mph 4.6 mph 59 % 0 in
16:18 61.9 °F 47.5 °F 30.2 in SW 5.8 mph 5.8 mph 59 % 0 in
16:23 61.9 °F 47.5 °F 30.2 in West 4.6 mph 4.6 mph 59 % 0 in
16:28 61.9 °F 46.9 °F 30.2 in West 4.6 mph 4.6 mph 58 % 0 in
16:33 61.9 °F 46.6 °F 30.2 in West 4.6 mph 4.6 mph 57 % 0 in
16:38 62.1 °F 46.6 °F 30.2 in WSW 7.8 mph 7.8 mph 57 % 0 in
16:43 61.9 °F 46.6 °F 30.2 in West 4.6 mph 4.6 mph 57 % 0 in
16:48 61.7 °F 46.2 °F 30.2 in West 5.8 mph 5.8 mph 57 % 0 in
16:53 61.7 °F 46.2 °F 30.2 in WSW 2.3 mph 2.3 mph 57 % 0 in
16:58 61.7 °F 46.2 °F 30.2 in SW 1.2 mph   57 % 0 in
17:03 61.5 °F 46 °F 30.2 in Calm     57 % 0 in
17:08 61.3 °F 46 °F 30.2 in SW 1.2 mph   57 % 0 in
17:13 60.8 °F 45.5 °F 30.2 in WNW 2 mph 2 mph 57 % 0 in
17:18 60.6 °F 45.3 °F 30.2 in WNW 1.2 mph   57 % 0 in
17:23 60.1 °F 45.1 °F 30.2 in Calm     58 % 0 in
17:25 60.1 °F 45.1 °F 30.2 in WNW 1.2 mph   58 % 0 in
17:30 59.5 °F 44.8 °F 30.2 in WNW 1.2 mph   58 % 0 in
17:35 59.5 °F 44.8 °F 30.2 in NW 2.3 mph 2.3 mph 58 % 0 in
17:40 59.2 °F 44.4 °F 30.2 in WNW 1.2 mph 1.2 mph 58 % 0 in
17:45 59 °F 44.8 °F 30.2 in West 2.3 mph 2.3 mph 59 % 0 in
17:50 58.6 °F 44.2 °F 30.2 in WSW 2.2 mph 2.2 mph 59 % 0 in
17:55 58.5 °F 44.2 °F 30.2 in SW 2.3 mph 2.3 mph 59 % 0 in
18:00 57.9 °F 43.7 °F 30.2 in WSW 2.3 mph 2.3 mph 59 % 0 in
18:05 57.7 °F 43.5 °F 30.2 in WSW 1.2 mph   59 % 0 in
18:10 57.6 °F 43.3 °F 30.2 in Calm     59 % 0 in
18:15 57.2 °F 43 °F 30.2 in NNW 1.2 mph   59 % 0 in
18:20 57.2 °F 43 °F 30.2 in NE 2.3 mph 2.3 mph 59 % 0 in
18:25 57.4 °F 43.5 °F 30.2 in NE 2.3 mph 2.3 mph 60 % 0 in
18:30 57.2 °F 43.3 °F 30.2 in ENE 2.3 mph 2.3 mph 60 % 0 in
18:35 57 °F 43.3 °F 30.2 in NE 2.3 mph 2.3 mph 60 % 0 in
18:40 56.5 °F 42.8 °F 30.2 in NNE 1.2 mph 1.2 mph 60 % 0 in
18:45 56.3 °F 42.6 °F 30.2 in Calm     60 % 0 in
18:50 56.1 °F 42.4 °F 30.2 in NNW 2.3 mph 2.3 mph 60 % 0 in
18:55 55.9 °F 42.3 °F 30.2 in North 2.3 mph 2.3 mph 60 % 0 in
19:00 55.9 °F 42.3 °F 30.2 in North 2.3 mph 2.3 mph 60 % 0 in
19:05 55.6 °F 42.3 °F 30.2 in NNE 2.9 mph 2.9 mph 61 % 0 in
19:10 55.2 °F 42.1 °F 30.2 in WSW 3.5 mph 3.5 mph 61 % 0 in
19:15 55 °F 41.7 °F 30.2 in NE 2.3 mph 2.3 mph 61 % 0 in
19:20 54.9 °F 41.7 °F 30.2 in WNW 1.2 mph   61 % 0 in
19:25 54.9 °F 42.1 °F 30.2 in NNW 1.2 mph 1.2 mph 62 % 0 in
19:30 54.9 °F 42.1 °F 30.2 in NNW 1.2 mph   62 % 0 in
19:35 54.5 °F 41.7 °F 30.2 in NE 1.2 mph 1.2 mph 62 % 0 in
19:40 53.8 °F 41.2 °F 30.2 in West 2.4 mph 2.4 mph 62 % 0 in
19:45 53.6 °F 40.8 °F 30.2 in WSW 3.5 mph 3.5 mph 62 % 0 in
19:50 53.6 °F 40.8 °F 30.2 in NW 2.3 mph 2.3 mph 62 % 0 in
19:55 54.1 °F 41.7 °F 30.2 in NW 2.3 mph 2.3 mph 63 % 0 in
20:00 54.7 °F 42.3 °F 30.2 in WNW 3.5 mph 3.5 mph 63 % 0 in
20:05 55.2 °F 42.8 °F 30.2 in SW 2.3 mph 2.3 mph 63 % 0 in
20:10 55.4 °F 43 °F 30.2 in WNW 1.4 mph   63 % 0 in
20:15 55.4 °F 43.3 °F 30.2 in Calm     64 % 0 in
20:16 55.4 °F 43.3 °F 30.2 in Calm     64 % 0 in
20:21 55.6 °F 43.5 °F 30.2 in Calm     64 % 0 in
20:26 55.8 °F 43.9 °F 30.2 in Calm     64 % 0 in
20:31 55.8 °F 43.9 °F 30.2 in WNW 2.3 mph   64 % 0 in
20:36 55.9 °F 43.9 °F 30.2 in NNE 2.3 mph 2.3 mph 64 % 0 in
20:41 55.9 °F 43.5 °F 30.2 in NNW 4.6 mph 4.6 mph 63 % 0 in
20:46 56.1 °F 43.7 °F 30.2 in NNW 1.2 mph 1.2 mph 63 % 0 in
20:51 56.3 °F 43.9 °F 30.2 in WNW 2.3 mph 2.3 mph 63 % 0 in
20:56 56.5 °F 44.1 °F 30.2 in SW 3.5 mph 3.5 mph 63 % 0 in
21:01 56.5 °F 44.1 °F 30.2 in WNW 2.3 mph 2.3 mph 63 % 0 in
21:06 56.7 °F 44.2 °F 30.2 in West 1.6 mph 1.6 mph 63 % 0 in
21:11 56.5 °F 44.1 °F 30.2 in North 2.3 mph   63 % 0 in
21:16 56.3 °F 43.9 °F 30.2 in West 1.6 mph 1.6 mph 63 % 0 in
21:21 56.1 °F 43.7 °F 30.2 in Calm     63 % 0 in
21:26 55.8 °F 43.3 °F 30.2 in WNW 2.3 mph   63 % 0 in
21:31 55.8 °F 43.3 °F 30.2 in WNW 3.5 mph 3.5 mph 63 % 0 in
21:36 55.6 °F 43.2 °F 30.2 in West 2.3 mph 2.3 mph 63 % 0 in
21:38 55.8 °F 43.3 °F 30.2 in SW 2.3 mph 2.3 mph 63 % 0 in
21:43 55.8 °F 43.3 °F 30.2 in North 2.3 mph 2.3 mph 63 % 0 in
21:48 55.6 °F 43.2 °F 30.2 in West 2.3 mph 2.3 mph 63 % 0 in
21:53 55.4 °F 43 °F 30.2 in West 2 mph 2 mph 63 % 0 in
21:58 55.4 °F 43 °F 30.2 in WNW 2.3 mph   63 % 0 in
22:03 55.2 °F 42.8 °F 30.2 in ENE 1.2 mph   63 % 0 in
22:08 54.9 °F 43 °F 30.2 in NE 1.2 mph 1.2 mph 64 % 0 in
22:13 54.7 °F 42.6 °F 30.2 in NNE 2.6 mph 2.6 mph 64 % 0 in
22:18 54.3 °F 42.4 °F 30.2 in ENE 1.6 mph 1.6 mph 64 % 0 in
22:23 54.3 °F 42.4 °F 30.2 in NNE 2.4 mph 2.4 mph 64 % 0 in
22:29 54 °F 42.1 °F 30.2 in NNE 2.3 mph 2.3 mph 64 % 0 in
22:34 54 °F 42.1 °F 30.2 in NW 1.2 mph 1.2 mph 64 % 0 in
22:39 54.1 °F 42.3 °F 30.2 in NE 2.3 mph 2.3 mph 64 % 0 in
22:44 53.6 °F 41.7 °F 30.2 in NNE 1.2 mph 1.2 mph 64 % 0 in
22:49 53.1 °F 41.5 °F 30.2 in NNE 2.3 mph 2.3 mph 65 % 0 in
22:54 53.1 °F 41.5 °F 30.2 in NNE 1.2 mph   65 % 0 in
22:59 53.1 °F 41.5 °F 30.2 in ENE 1.2 mph 1.4 mph 65 % 0 in
23:04 52.9 °F 41.4 °F 30.2 in North 2.3 mph 2.3 mph 65 % 0 in
23:09 52.9 °F 41.4 °F 30.2 in North 3.1 mph 3.1 mph 65 % 0 in
23:14 52.9 °F 41.4 °F 30.2 in North 2.3 mph 2.3 mph 65 % 0 in
23:19 52.9 °F 41.4 °F 30.2 in NNE 3.5 mph 3.5 mph 65 % 0 in
23:24 52.9 °F 41.4 °F 30.2 in West 2.3 mph 2.3 mph 65 % 0 in
23:29 52.9 °F 41.4 °F 30.2 in North 3.5 mph 3.5 mph 65 % 0 in
23:34 52.9 °F 41.4 °F 30.2 in North 3.5 mph 3.5 mph 65 % 0 in
23:39 52.9 °F 41.4 °F 30.2 in North 3.5 mph 3.5 mph 65 % 0 in
23:44 52.7 °F 41.4 °F 30.2 in WNW 2.3 mph   65 % 0 in
23:49 52.7 °F 41.7 °F 30.2 in NNW 1.2 mph 1.2 mph 66 % 0 in
23:54 52.5 °F 41.5 °F 30.2 in NE 1.2 mph 1.2 mph 66 % 0 in
23:59 52.3 °F 41.4 °F 30.2 in NNW 1.2 mph   66 % 0 in
Meteo Sesrovires
Elogis d' Weather Underground - 4 mb

Guio original per  Jim McMurry - jmcmurry@mwt.net Adaptat per a la plantilla per  Wim van der Kuil - Leuven-Template.eu

Trobareu la nostra informacio del temps tambe a:

Weather Underground

AWEKAS